createdAt,value
2019-06-27T00:00:27.034Z,26.00
2019-06-27T00:02:57.324Z,26.00
2019-06-27T00:05:27.665Z,26.00
2019-06-27T00:07:58.013Z,26.00
2019-06-27T00:10:28.426Z,26.00
2019-06-27T00:12:58.767Z,25.90
2019-06-27T00:15:29.180Z,25.90
2019-06-27T00:17:59.518Z,25.80
2019-06-27T00:20:29.896Z,25.70
2019-06-27T00:23:00.294Z,25.70
2019-06-27T00:25:32.091Z,25.60
2019-06-27T00:28:02.441Z,25.60
2019-06-27T00:30:32.795Z,25.50
2019-06-27T00:33:03.196Z,25.50
2019-06-27T00:35:33.557Z,25.50
2019-06-27T00:38:03.882Z,25.40
2019-06-27T00:40:34.245Z,25.50
2019-06-27T00:43:04.644Z,25.50
2019-06-27T00:45:34.984Z,25.40
2019-06-27T00:48:05.354Z,25.40
2019-06-27T00:50:35.723Z,25.40
2019-06-27T00:53:06.070Z,25.40
2019-06-27T00:55:36.463Z,25.40
2019-06-27T00:58:06.793Z,25.40
2019-06-27T01:00:37.182Z,25.50
2019-06-27T01:03:08.109Z,25.50
2019-06-27T01:05:38.479Z,25.60
2019-06-27T01:08:08.927Z,25.60
2019-06-27T01:10:39.343Z,25.70
2019-06-27T01:13:09.791Z,25.70
2019-06-27T01:15:40.146Z,25.70
2019-06-27T01:18:10.517Z,25.70
2019-06-27T01:20:40.839Z,25.70
2019-06-27T01:23:11.248Z,25.80
2019-06-27T01:25:41.595Z,25.80
2019-06-27T01:28:11.971Z,25.80
2019-06-27T01:30:42.308Z,25.80
2019-06-27T01:33:12.678Z,25.80
2019-06-27T01:35:43.037Z,25.80
2019-06-27T01:38:13.482Z,25.70
2019-06-27T01:40:43.809Z,25.80
2019-06-27T01:43:14.199Z,25.80
2019-06-27T01:45:52.042Z,25.70
2019-06-27T01:48:22.537Z,25.70
2019-06-27T01:50:52.911Z,25.70
2019-06-27T01:53:23.279Z,25.70
2019-06-27T01:55:53.613Z,25.70
2019-06-27T01:58:23.964Z,25.70
2019-06-27T02:00:54.300Z,25.60
2019-06-27T02:03:24.667Z,25.60
2019-06-27T02:05:55.096Z,25.60
2019-06-27T02:08:25.477Z,25.50
2019-06-27T02:10:55.852Z,25.50
2019-06-27T02:13:26.248Z,25.50
2019-06-27T02:15:56.649Z,25.50
2019-06-27T02:18:26.999Z,25.50
2019-06-27T02:20:57.324Z,25.40
2019-06-27T02:23:27.726Z,25.40
2019-06-27T02:25:58.044Z,25.40
2019-06-27T02:28:28.412Z,25.40
2019-06-27T02:30:58.744Z,25.40
2019-06-27T02:33:29.111Z,25.40
2019-06-27T02:35:59.462Z,25.40
2019-06-27T02:38:29.936Z,25.40
2019-06-27T02:41:00.399Z,25.30
2019-06-27T02:43:31.911Z,25.40
2019-06-27T02:46:02.233Z,25.30
2019-06-27T02:48:32.591Z,25.30
2019-06-27T02:51:02.924Z,25.30
2019-06-27T02:53:33.311Z,25.30
2019-06-27T02:56:03.761Z,25.30
2019-06-27T02:58:35.276Z,25.30
2019-06-27T03:01:05.604Z,25.30
2019-06-27T03:03:35.983Z,25.20
2019-06-27T03:06:06.454Z,25.20
2019-06-27T03:08:36.960Z,25.30
2019-06-27T03:11:07.304Z,25.20
2019-06-27T03:13:37.649Z,25.20
2019-06-27T03:16:07.963Z,25.20
2019-06-27T03:18:38.427Z,25.20
2019-06-27T03:21:08.786Z,25.10
2019-06-27T03:23:39.214Z,25.10
2019-06-27T03:26:09.543Z,25.10
2019-06-27T03:28:52.303Z,25.10
2019-06-27T03:31:11.854Z,25.10
2019-06-27T03:33:42.233Z,25.10
2019-06-27T03:36:12.582Z,25.10
2019-06-27T03:38:42.932Z,25.00
2019-06-27T03:41:13.278Z,25.00
2019-06-27T03:43:43.687Z,25.00
2019-06-27T03:46:14.021Z,25.00
2019-06-27T03:48:44.393Z,25.10
2019-06-27T03:51:14.717Z,25.00
2019-06-27T03:53:45.071Z,25.00
2019-06-27T03:56:15.396Z,25.00
2019-06-27T03:58:45.765Z,25.00
2019-06-27T04:01:16.109Z,25.00
2019-06-27T04:03:46.465Z,25.00
2019-06-27T04:06:16.916Z,25.00
2019-06-27T04:08:47.295Z,25.00
2019-06-27T04:11:17.622Z,25.00
2019-06-27T04:13:48.958Z,25.00
2019-06-27T04:16:19.270Z,25.00
2019-06-27T04:18:49.636Z,25.10
2019-06-27T04:21:19.964Z,25.10
2019-06-27T04:23:50.290Z,25.10
2019-06-27T04:26:20.641Z,25.10
2019-06-27T04:28:50.993Z,25.20
2019-06-27T04:31:21.353Z,25.20
2019-06-27T04:33:51.687Z,25.20
2019-06-27T04:36:22.072Z,25.20
2019-06-27T04:38:52.443Z,25.30
2019-06-27T04:41:22.830Z,25.30
2019-06-27T04:43:54.125Z,25.30
2019-06-27T04:46:25.551Z,25.40
2019-06-27T04:48:55.892Z,25.40
2019-06-27T04:51:29.366Z,25.40
2019-06-27T04:53:59.715Z,25.50
2019-06-27T04:56:30.166Z,25.50
2019-06-27T04:59:00.502Z,25.50
2019-06-27T05:01:30.850Z,25.60
2019-06-27T05:04:01.186Z,25.60
2019-06-27T05:06:31.590Z,25.70
2019-06-27T05:09:01.940Z,25.70
2019-06-27T05:11:32.701Z,25.80
2019-06-27T05:14:03.020Z,25.90
2019-06-27T05:16:33.378Z,25.90
2019-06-27T05:19:03.738Z,26.00
2019-06-27T05:21:34.087Z,26.00
2019-06-27T05:24:04.403Z,26.10
2019-06-27T05:26:34.765Z,26.20
2019-06-27T05:29:05.072Z,26.20
2019-06-27T05:31:35.443Z,26.30
2019-06-27T05:34:05.780Z,26.40
2019-06-27T05:36:36.151Z,26.50
2019-06-27T05:39:06.728Z,26.50
2019-06-27T05:41:37.067Z,26.60
2019-06-27T05:44:07.393Z,26.60
2019-06-27T05:46:37.747Z,26.70
2019-06-27T05:49:08.158Z,26.80
2019-06-27T05:51:38.518Z,26.80
2019-06-27T05:54:08.843Z,26.90
2019-06-27T05:56:39.222Z,26.90
2019-06-27T05:59:09.540Z,27.00
2019-06-27T06:01:39.932Z,27.10
2019-06-27T06:04:11.549Z,27.20
2019-06-27T06:06:41.905Z,27.20
2019-06-27T06:09:12.292Z,27.30
2019-06-27T06:11:42.655Z,27.30
2019-06-27T06:14:12.962Z,27.40
2019-06-27T06:16:43.339Z,27.40
2019-06-27T06:19:13.773Z,27.50
2019-06-27T06:21:44.197Z,27.60
2019-06-27T06:24:15.563Z,27.60
2019-06-27T06:26:45.917Z,27.60
2019-06-27T06:29:16.313Z,27.70
2019-06-27T06:31:49.238Z,27.70
2019-06-27T06:34:18.621Z,27.80
2019-06-27T06:36:48.991Z,27.80
2019-06-27T06:39:19.339Z,27.90
2019-06-27T06:41:49.711Z,27.90
2019-06-27T06:44:20.048Z,28.00
2019-06-27T06:46:50.403Z,28.10
2019-06-27T06:49:20.759Z,28.10
2019-06-27T06:51:51.139Z,28.20
2019-06-27T06:54:22.538Z,28.20
2019-06-27T06:56:52.910Z,28.20
2019-06-27T06:59:23.221Z,28.20
2019-06-27T07:01:53.590Z,28.30
2019-06-27T07:04:23.910Z,28.30
2019-06-27T07:06:54.286Z,28.40
2019-06-27T07:09:24.737Z,28.50
2019-06-27T07:11:55.198Z,28.50
2019-06-27T07:14:27.143Z,28.50
2019-06-27T07:16:58.699Z,28.60
2019-06-27T07:19:29.015Z,28.60
2019-06-27T07:21:59.547Z,28.70
2019-06-27T07:24:29.870Z,28.80
2019-06-27T07:27:00.320Z,28.90
2019-06-27T07:29:30.774Z,28.90
2019-06-27T07:32:01.092Z,29.00
2019-06-27T07:34:31.424Z,29.00
2019-06-27T07:37:01.912Z,29.10
2019-06-27T07:39:32.246Z,29.10
2019-06-27T07:42:02.653Z,29.20
2019-06-27T07:44:33.042Z,29.20
2019-06-27T07:47:03.409Z,29.30
2019-06-27T07:49:36.867Z,29.30
2019-06-27T07:52:07.501Z,29.40
2019-06-27T07:54:37.831Z,29.40
2019-06-27T07:57:08.306Z,29.40
2019-06-27T07:59:38.641Z,29.50
2019-06-27T08:02:09.191Z,29.50
2019-06-27T08:04:39.501Z,29.60
2019-06-27T08:07:09.902Z,29.60
2019-06-27T08:09:40.230Z,29.70
2019-06-27T08:12:10.620Z,29.80
2019-06-27T08:14:40.958Z,29.80
2019-06-27T08:17:11.287Z,29.90
2019-06-27T08:19:42.768Z,30.00
2019-06-27T08:22:13.077Z,30.10
2019-06-27T08:24:45.155Z,30.10
2019-06-27T08:27:18.087Z,30.10
2019-06-27T08:29:56.314Z,30.20
2019-06-27T08:32:28.109Z,30.30
2019-06-27T08:35:12.019Z,30.30
2019-06-27T08:37:47.461Z,30.40
2019-06-27T08:40:17.865Z,30.50
2019-06-27T08:42:48.237Z,30.60
2019-06-27T08:45:19.655Z,30.60
2019-06-27T08:47:50.008Z,30.70
2019-06-27T08:50:20.347Z,30.70
2019-06-27T08:52:50.709Z,30.70
2019-06-27T08:55:21.055Z,30.70
2019-06-27T08:57:51.444Z,30.70
2019-06-27T09:00:21.902Z,30.70
2019-06-27T09:02:52.431Z,30.70
2019-06-27T09:05:22.796Z,30.70
2019-06-27T09:07:53.161Z,30.70
2019-06-27T09:10:23.675Z,30.80
2019-06-27T09:12:54.057Z,30.90
2019-06-27T09:15:24.404Z,30.90
2019-06-27T09:17:54.791Z,30.90
2019-06-27T09:20:25.140Z,30.80
2019-06-27T09:22:55.549Z,30.90
2019-06-27T09:25:25.904Z,31.00
2019-06-27T09:27:57.365Z,31.10
2019-06-27T09:30:27.655Z,31.10
2019-06-27T09:32:58.013Z,31.20
2019-06-27T09:35:28.352Z,31.20
2019-06-27T09:37:58.713Z,31.30
2019-06-27T09:40:29.054Z,31.30
2019-06-27T09:42:59.411Z,31.40
2019-06-27T09:45:29.794Z,31.60
2019-06-27T09:48:00.154Z,31.70
2019-06-27T09:50:30.565Z,31.80
2019-06-27T09:53:00.925Z,31.90
2019-06-27T09:55:31.278Z,32.00
2019-06-27T09:58:01.626Z,32.20
2019-06-27T10:00:32.322Z,32.30
2019-06-27T10:03:02.720Z,32.30
2019-06-27T10:05:33.079Z,32.50
2019-06-27T10:08:03.419Z,32.50
2019-06-27T10:10:33.773Z,32.50
2019-06-27T10:13:04.186Z,32.50
2019-06-27T10:15:34.556Z,32.50
2019-06-27T10:18:05.780Z,32.50
2019-06-27T10:20:36.174Z,32.60
2019-06-27T10:23:06.642Z,32.70
2019-06-27T10:25:38.252Z,32.90
2019-06-27T10:28:08.845Z,33.00
2019-06-27T10:30:39.173Z,33.00
2019-06-27T10:33:09.551Z,33.10
2019-06-27T10:35:39.887Z,33.10
2019-06-27T10:38:10.264Z,33.20
2019-06-27T10:40:40.613Z,33.30
2019-06-27T10:43:12.075Z,33.30
2019-06-27T10:45:42.630Z,33.40
2019-06-27T10:48:13.042Z,33.40
2019-06-27T10:50:45.690Z,33.50
2019-06-27T10:53:15.783Z,33.60
2019-06-27T10:55:46.130Z,33.70
2019-06-27T10:58:16.478Z,33.70
2019-06-27T11:00:47.987Z,33.80
2019-06-27T11:03:18.335Z,33.90
2019-06-27T11:05:48.725Z,33.90
2019-06-27T11:08:19.071Z,34.00
2019-06-27T11:10:49.442Z,34.10
2019-06-27T11:13:19.760Z,34.10
2019-06-27T11:15:50.090Z,34.20
2019-06-27T11:18:21.557Z,34.40
2019-06-27T11:20:51.942Z,34.90
2019-06-27T11:23:22.314Z,35.50
2019-06-27T11:25:52.645Z,36.10
2019-06-27T11:28:22.999Z,36.90
2019-06-27T11:30:53.327Z,37.60
2019-06-27T11:33:32.350Z,38.20
2019-06-27T11:35:56.608Z,38.70
2019-06-27T11:38:26.962Z,39.30
2019-06-27T11:40:57.308Z,39.90
2019-06-27T11:43:27.653Z,40.40
2019-06-27T11:45:58.058Z,40.80
2019-06-27T11:48:28.496Z,41.20
2019-06-27T11:50:58.908Z,41.60
2019-06-27T11:53:29.316Z,42.20
2019-06-27T11:55:59.644Z,42.60
2019-06-27T11:58:30.000Z,42.80
2019-06-27T12:01:00.434Z,43.20
2019-06-27T12:03:45.054Z,43.60
2019-06-27T12:06:03.972Z,43.80
2019-06-27T12:08:34.356Z,43.90
2019-06-27T12:11:04.809Z,44.20
2019-06-27T12:13:35.389Z,44.50
2019-06-27T12:16:05.819Z,45.00
2019-06-27T12:18:36.185Z,45.50
2019-06-27T12:21:06.588Z,45.90
2019-06-27T12:23:37.001Z,45.90
2019-06-27T12:26:07.332Z,45.90
2019-06-27T12:28:37.731Z,46.10
2019-06-27T12:31:20.023Z,46.30
2019-06-27T12:33:40.117Z,46.50
2019-06-27T12:36:10.500Z,46.50
2019-06-27T12:38:40.917Z,46.50
2019-06-27T12:41:11.302Z,46.80
2019-06-27T12:43:41.643Z,46.90
2019-06-27T12:46:12.023Z,47.20
2019-06-27T12:48:42.386Z,47.40
2019-06-27T12:51:13.838Z,47.80
2019-06-27T12:53:44.271Z,48.20
2019-06-27T12:56:14.680Z,48.30
2019-06-27T12:58:45.070Z,48.30
2019-06-27T13:01:15.602Z,48.40
2019-06-27T13:03:46.017Z,48.40
2019-06-27T13:06:16.367Z,48.30
2019-06-27T13:08:46.726Z,48.40
2019-06-27T13:11:17.107Z,48.60
2019-06-27T13:13:47.499Z,48.90
2019-06-27T13:16:17.932Z,48.80
2019-06-27T13:18:48.360Z,48.90
2019-06-27T13:21:18.749Z,49.10
2019-06-27T13:23:49.163Z,49.30
2019-06-27T13:26:19.456Z,49.60
2019-06-27T13:28:49.809Z,49.70
2019-06-27T13:31:21.008Z,49.80
2019-06-27T13:33:51.348Z,50.10
2019-06-27T13:36:21.733Z,50.30
2019-06-27T13:38:52.088Z,50.20
2019-06-27T13:41:22.474Z,49.90
2019-06-27T13:43:52.830Z,49.60
2019-06-27T13:46:23.708Z,49.40
2019-06-27T13:48:54.067Z,49.20
2019-06-27T13:51:24.448Z,49.20
2019-06-27T13:53:54.801Z,49.30
2019-06-27T13:56:25.184Z,49.50
2019-06-27T13:58:56.703Z,49.60
2019-06-27T14:01:27.196Z,49.70
2019-06-27T14:03:58.726Z,49.60
2019-06-27T14:06:29.093Z,49.40
2019-06-27T14:08:59.408Z,49.30
2019-06-27T14:11:29.865Z,49.20
2019-06-27T14:14:00.223Z,49.10
2019-06-27T14:16:30.597Z,48.80
2019-06-27T14:19:00.950Z,48.50
2019-06-27T14:21:31.422Z,48.50
2019-06-27T14:24:01.835Z,48.70
2019-06-27T14:26:32.261Z,48.70
2019-06-27T14:29:02.748Z,48.70
2019-06-27T14:31:33.158Z,48.90
2019-06-27T14:34:03.591Z,48.60
2019-06-27T14:36:35.035Z,48.40
2019-06-27T14:39:06.872Z,48.30
2019-06-27T14:41:37.431Z,48.60
2019-06-27T14:44:07.780Z,48.60
2019-06-27T14:46:39.131Z,48.30
2019-06-27T14:49:09.501Z,48.20
2019-06-27T14:51:39.973Z,48.20
2019-06-27T14:54:10.345Z,48.40
2019-06-27T14:56:40.755Z,48.60
2019-06-27T14:59:14.344Z,49.10
2019-06-27T15:01:43.117Z,49.60
2019-06-27T15:04:13.467Z,50.20
2019-06-27T15:06:43.838Z,50.60
2019-06-27T15:09:14.151Z,50.60
2019-06-27T15:11:44.579Z,50.40
2019-06-27T15:14:14.969Z,50.30
2019-06-27T15:16:45.335Z,49.90
2019-06-27T15:19:15.743Z,49.70
2019-06-27T15:21:46.141Z,49.60
2019-06-27T15:24:16.499Z,49.30
2019-06-27T15:26:46.855Z,49.40
2019-06-27T15:29:17.186Z,49.70
2019-06-27T15:31:47.552Z,50.20
2019-06-27T15:34:17.875Z,50.50
2019-06-27T15:36:48.225Z,50.80
2019-06-27T15:39:18.543Z,50.90
2019-06-27T15:41:48.947Z,50.70
2019-06-27T15:44:20.729Z,50.80
2019-06-27T15:46:54.101Z,50.70
2019-06-27T15:49:24.208Z,50.50
2019-06-27T15:51:54.689Z,50.30
2019-06-27T15:54:25.028Z,50.00
2019-06-27T15:56:55.420Z,49.80
2019-06-27T15:59:25.768Z,49.90
2019-06-27T16:01:57.131Z,50.20
2019-06-27T16:04:34.024Z,50.30
2019-06-27T16:07:00.460Z,50.30
2019-06-27T16:09:30.932Z,50.30
2019-06-27T16:12:01.284Z,50.40
2019-06-27T16:14:31.859Z,50.50
2019-06-27T16:17:02.150Z,50.10
2019-06-27T16:19:32.486Z,49.60
2019-06-27T16:22:03.988Z,49.40
2019-06-27T16:24:34.231Z,49.20
2019-06-27T16:27:04.592Z,48.90
2019-06-27T16:29:34.910Z,48.60
2019-06-27T16:32:05.283Z,48.30
2019-06-27T16:34:35.599Z,48.30
2019-06-27T16:37:05.967Z,48.40
2019-06-27T16:39:38.869Z,48.20
2019-06-27T16:42:08.291Z,48.00
2019-06-27T16:44:38.597Z,47.80
2019-06-27T16:47:08.940Z,47.60
2019-06-27T16:49:39.263Z,47.40
2019-06-27T16:52:09.615Z,47.30
2019-06-27T16:54:39.940Z,47.00
2019-06-27T16:57:10.297Z,46.90
2019-06-27T16:59:40.619Z,46.90
2019-06-27T17:02:11.038Z,47.10
2019-06-27T17:04:41.330Z,47.20
2019-06-27T17:07:11.690Z,47.40
2019-06-27T17:09:42.031Z,47.40
2019-06-27T17:12:12.428Z,47.40
2019-06-27T17:14:42.757Z,47.30
2019-06-27T17:17:13.193Z,47.00
2019-06-27T17:19:43.604Z,46.60
2019-06-27T17:22:13.946Z,46.30
2019-06-27T17:24:44.276Z,46.10
2019-06-27T17:27:14.642Z,46.10
2019-06-27T17:29:44.950Z,45.90
2019-06-27T17:32:15.319Z,45.80
2019-06-27T17:34:45.631Z,45.60
2019-06-27T17:37:18.540Z,45.60
2019-06-27T17:39:47.961Z,45.40
2019-06-27T17:42:18.308Z,45.30
2019-06-27T17:44:48.632Z,45.30
2019-06-27T17:47:18.986Z,45.20
2019-06-27T17:49:49.343Z,45.10
2019-06-27T17:52:19.686Z,45.00
2019-06-27T17:54:50.028Z,44.80
2019-06-27T17:57:20.441Z,44.40
2019-06-27T17:59:50.772Z,44.10
2019-06-27T18:02:21.567Z,43.70
2019-06-27T18:04:51.888Z,43.40
2019-06-27T18:07:22.245Z,43.10
2019-06-27T18:09:52.728Z,42.80
2019-06-27T18:12:23.229Z,42.60
2019-06-27T18:14:53.547Z,42.30
2019-06-27T18:17:32.861Z,42.20
2019-06-27T18:19:55.914Z,42.00
2019-06-27T18:22:26.254Z,41.60
2019-06-27T18:24:56.606Z,41.30
2019-06-27T18:27:27.643Z,41.10
2019-06-27T18:29:57.963Z,40.90
2019-06-27T18:32:28.315Z,40.50
2019-06-27T18:34:58.738Z,40.20
2019-06-27T18:37:30.265Z,39.80
2019-06-27T18:40:01.935Z,39.40
2019-06-27T18:42:33.550Z,39.00
2019-06-27T18:45:05.563Z,38.70
2019-06-27T18:47:36.008Z,38.40
2019-06-27T18:50:10.218Z,38.10
2019-06-27T18:52:40.663Z,37.70
2019-06-27T18:55:10.993Z,37.40
2019-06-27T18:57:41.380Z,36.90
2019-06-27T19:00:12.013Z,36.60
2019-06-27T19:02:42.359Z,36.20
2019-06-27T19:05:14.351Z,35.80
2019-06-27T19:07:46.264Z,35.40
2019-06-27T19:10:16.939Z,35.00
2019-06-27T19:12:47.291Z,34.50
2019-06-27T19:15:17.618Z,34.00
2019-06-27T19:17:47.976Z,33.40
2019-06-27T19:20:27.126Z,32.90
2019-06-27T19:23:03.308Z,32.50
2019-06-27T19:25:35.472Z,32.00
2019-06-27T19:28:05.860Z,31.60
2019-06-27T19:30:36.179Z,31.30
2019-06-27T19:33:07.696Z,30.90
2019-06-27T19:35:38.109Z,30.60
2019-06-27T19:38:08.465Z,30.40
2019-06-27T19:40:38.868Z,30.20
2019-06-27T19:43:09.246Z,30.00
2019-06-27T19:45:39.562Z,29.80
2019-06-27T19:48:10.874Z,29.60
2019-06-27T19:50:41.196Z,29.50
2019-06-27T19:53:12.375Z,29.30
2019-06-27T19:55:42.695Z,29.10
2019-06-27T19:58:13.279Z,29.00
2019-06-27T20:00:44.407Z,28.90
2019-06-27T20:03:14.739Z,28.70
2019-06-27T20:05:45.070Z,28.60
2019-06-27T20:08:19.731Z,28.50
2019-06-27T20:10:47.367Z,28.30
2019-06-27T20:13:17.809Z,28.20
2019-06-27T20:15:48.122Z,28.10
2019-06-27T20:18:18.479Z,28.00
2019-06-27T20:20:48.826Z,27.90
2019-06-27T20:23:19.180Z,27.80
2019-06-27T20:25:49.504Z,27.70
2019-06-27T20:28:19.888Z,27.60
2019-06-27T20:30:50.204Z,27.60
2019-06-27T20:33:20.582Z,27.50
2019-06-27T20:35:51.421Z,27.40
2019-06-27T20:38:34.253Z,27.30
2019-06-27T20:40:53.943Z,27.20
2019-06-27T20:43:24.308Z,27.10
2019-06-27T20:45:54.631Z,27.00
2019-06-27T20:48:24.979Z,26.90
2019-06-27T20:50:56.467Z,26.80
2019-06-27T20:53:26.866Z,26.70
2019-06-27T20:55:57.719Z,26.60
2019-06-27T20:58:28.649Z,26.60
2019-06-27T21:00:58.964Z,26.50
2019-06-27T21:03:29.318Z,26.40
2019-06-27T21:05:59.758Z,26.40
2019-06-27T21:08:30.502Z,26.20
2019-06-27T21:11:00.855Z,26.20
2019-06-27T21:13:31.253Z,26.00
2019-06-27T21:16:01.622Z,26.00
2019-06-27T21:18:32.168Z,25.90
2019-06-27T21:21:02.623Z,25.80
2019-06-27T21:23:32.999Z,25.70
2019-06-27T21:26:03.338Z,25.60
2019-06-27T21:28:34.595Z,25.50
2019-06-27T21:31:05.796Z,25.40
2019-06-27T21:33:36.103Z,25.40
2019-06-27T21:36:06.423Z,25.30
2019-06-27T21:38:36.829Z,25.20
2019-06-27T21:41:07.144Z,25.20
2019-06-27T21:43:37.513Z,25.10
2019-06-27T21:46:07.842Z,25.10
2019-06-27T21:48:38.186Z,25.10
2019-06-27T21:51:08.513Z,25.00
2019-06-27T21:53:38.855Z,24.90
2019-06-27T21:56:09.181Z,24.90
2019-06-27T21:58:39.539Z,24.80
2019-06-27T22:01:09.965Z,24.70
2019-06-27T22:03:40.382Z,24.60
2019-06-27T22:06:10.699Z,24.60
2019-06-27T22:08:41.048Z,24.50
2019-06-27T22:11:11.365Z,24.50
2019-06-27T22:13:41.721Z,24.40
2019-06-27T22:16:12.111Z,24.30
2019-06-27T22:18:43.478Z,24.20
2019-06-27T22:21:13.778Z,24.10
2019-06-27T22:23:44.172Z,24.00
2019-06-27T22:26:14.505Z,23.90
2019-06-27T22:28:44.880Z,23.90
2019-06-27T22:31:15.251Z,23.90
2019-06-27T22:33:45.590Z,23.80
2019-06-27T22:36:15.918Z,23.70
2019-06-27T22:39:04.241Z,23.70
2019-06-27T22:41:52.995Z,23.60
2019-06-27T22:44:41.340Z,23.50
2019-06-27T22:47:29.472Z,23.40
2019-06-27T22:49:59.595Z,23.30
2019-06-27T22:52:47.801Z,23.20
2019-06-27T22:55:21.488Z,23.20
2019-06-27T22:57:51.841Z,23.10
2019-06-27T23:00:22.391Z,23.00
2019-06-27T23:02:52.723Z,23.00
2019-06-27T23:05:23.114Z,22.90
2019-06-27T23:07:53.406Z,22.90
2019-06-27T23:10:23.760Z,22.80
2019-06-27T23:12:54.181Z,22.70
2019-06-27T23:15:24.543Z,22.60
2019-06-27T23:17:54.883Z,22.60
2019-06-27T23:20:25.196Z,22.50
2019-06-27T23:22:55.549Z,22.40
2019-06-27T23:25:25.857Z,22.40
2019-06-27T23:27:56.255Z,22.30
2019-06-27T23:30:26.554Z,22.30
2019-06-27T23:32:56.992Z,22.30
2019-06-27T23:35:27.621Z,22.30
2019-06-27T23:37:57.974Z,22.20
2019-06-27T23:40:28.300Z,22.20
2019-06-27T23:42:58.672Z,22.20
2019-06-27T23:45:28.975Z,22.30
2019-06-27T23:47:59.328Z,22.30
2019-06-27T23:50:29.642Z,22.30
2019-06-27T23:52:59.979Z,22.30
2019-06-27T23:55:30.354Z,22.30
2019-06-27T23:58:00.636Z,22.30
